Time;durP1;ratioP1;P1;durP2;ratioP2;P2;SDS_P1;SDS_P2;PMS_P1;PMS_P2;Temp;Humidity;BMP_temperature;BMP_pressure;BME280_temperature;BME280_humidity;BME280_pressure;Samples;Min_cycle;Max_cycle;Signal;HPM_P1;HPM_P2
2021/03/10 00:00:14;;;;;;;14.47;6.90;;;5.40;88.80;;;;;;5028412;28;20194;-92
2021/03/10 00:02:41;;;;;;;11.63;6.80;;;5.40;88.40;;;;;;5004282;28;20231;-90
2021/03/10 00:05:08;;;;;;;13.33;7.80;;;5.60;89.20;;;;;;5024088;28;20289;-90
2021/03/10 00:07:35;;;;;;;14.13;8.10;;;5.30;89.40;;;;;;5037307;28;20673;-90
2021/03/10 00:10:00;;;;;;;16.77;8.43;;;5.30;89.60;;;;;;5023455;28;20610;-90
2021/03/10 00:12:26;;;;;;;16.60;9.40;;;5.30;90.00;;;;;;5026559;28;20222;-90
2021/03/10 00:14:52;;;;;;;14.33;7.50;;;5.30;90.00;;;;;;5024950;28;20196;-90
2021/03/10 00:17:19;;;;;;;13.90;8.23;;;5.30;90.20;;;;;;5025085;28;20230;-90
2021/03/10 00:19:44;;;;;;;11.87;8.67;;;5.30;90.20;;;;;;5036471;28;20243;-90
2021/03/10 00:22:10;;;;;;;13.50;9.07;;;;;;;;;;5023131;28;20221;-90
2021/03/10 00:24:36;;;;;;;15.30;8.77;;;5.20;90.10;;;;;;5038071;28;20235;-90
2021/03/10 00:27:03;;;;;;;20.37;9.67;;;5.30;90.50;;;;;;5021489;28;20263;-90
2021/03/10 00:29:28;;;;;;;14.80;7.90;;;5.30;90.30;;;;;;5020978;28;20226;-90
2021/03/10 00:31:54;;;;;;;15.23;9.93;;;7.20;90.90;;;;;;5017147;28;20208;-92
2021/03/10 00:34:20;;;;;;;16.77;8.30;;;5.40;89.50;;;;;;5021436;28;20258;-90
2021/03/10 00:36:45;;;;;;;18.60;9.77;;;5.40;89.40;;;;;;5042000;28;20254;-91
2021/03/10 00:39:11;;;;;;;17.27;8.87;;;5.50;88.70;;;;;;5026222;28;20199;-90
2021/03/10 00:41:37;;;;;;;13.23;7.57;;;5.50;88.40;;;;;;5038464;28;20203;-90
2021/03/10 00:44:03;;;;;;;20.50;9.60;;;5.40;88.70;;;;;;5017821;28;20255;-90
2021/03/10 00:46:28;;;;;;;13.63;8.77;;;5.50;88.60;;;;;;5011170;28;20564;-90
2021/03/10 00:48:54;;;;;;;14.37;8.20;;;5.50;88.50;;;;;;5002792;28;20271;-89
2021/03/10 00:51:20;;;;;;;13.77;7.67;;;7.10;89.60;;;;;;5009987;28;20177;-90
2021/03/10 00:53:46;;;;;;;14.77;9.33;;;5.50;87.30;;;;;;5005009;28;20189;-90
2021/03/10 00:56:11;;;;;;;12.83;7.00;;;5.50;87.10;;;;;;5004857;28;20217;-90
2021/03/10 00:58:37;;;;;;;20.37;10.90;;;5.60;86.60;;;;;;5019191;28;20215;-89
2021/03/10 01:01:02;;;;;;;11.17;7.80;;;5.50;86.50;;;;;;5022887;28;20216;-90
2021/03/10 01:03:28;;;;;;;14.10;8.90;;;5.50;86.70;;;;;;5024432;28;20257;-90
2021/03/10 01:05:54;;;;;;;15.50;9.63;;;5.50;87.20;;;;;;5022585;28;20196;-90
2021/03/10 01:08:20;;;;;;;14.33;7.63;;;;;;;;;;5040138;28;20223;-90
2021/03/10 01:10:47;;;;;;;15.37;9.40;;;5.60;85.20;;;;;;5045677;28;20273;-90
2021/03/10 01:13:13;;;;;;;15.60;9.13;;;5.60;85.70;;;;;;5037429;28;20172;-90
2021/03/10 01:15:39;;;;;;;9.90;5.63;;;5.60;85.70;;;;;;5025797;28;20224;-90
2021/03/10 01:18:04;;;;;;;17.13;8.87;;;5.60;85.70;;;;;;5022830;28;20628;-90
2021/03/10 01:20:30;;;;;;;16.37;8.40;;;5.60;85.70;;;;;;5023780;28;20182;-90
2021/03/10 01:22:56;;;;;;;16.03;9.70;;;5.60;85.70;;;;;;5024057;28;20338;-90
2021/03/10 01:25:22;;;;;;;13.07;9.37;;;5.60;85.70;;;;;;5039847;28;20231;-90
2021/03/10 01:27:47;;;;;;;13.20;8.03;;;5.50;86.60;;;;;;5026338;28;20227;-90
2021/03/10 01:30:15;;;;;;;11.80;6.63;;;6.40;88.10;;;;;;5038232;28;20207;-90
2021/03/10 01:32:41;;;;;;;16.20;9.30;;;5.40;88.30;;;;;;5024179;28;20188;-90
2021/03/10 01:35:09;;;;;;;14.13;9.07;;;5.40;88.70;;;;;;5034784;28;20220;-90
2021/03/10 01:37:35;;;;;;;15.60;9.03;;;5.30;89.30;;;;;;5023077;28;20220;-91
2021/03/10 01:40:05;;;;;;;15.90;8.87;;;4.60;88.30;;;;;;5026917;28;20188;-91
2021/03/10 01:42:30;;;;;;;15.40;8.37;;;5.20;90.00;;;;;;5041133;28;20351;-91
2021/03/10 01:44:56;;;;;;;17.87;9.60;;;6.90;90.70;;;;;;5027005;28;20212;-91
2021/03/10 01:47:22;;;;;;;16.43;9.07;;;6.00;90.40;;;;;;5042002;28;20246;-91
2021/03/10 01:49:47;;;;;;;18.87;9.73;;;5.30;90.10;;;;;;5024485;28;20206;-91
2021/03/10 01:52:13;;;;;;;13.97;8.80;;;5.40;90.00;;;;;;5024379;28;20191;-91
2021/03/10 01:54:39;;;;;;;16.50;9.20;;;6.70;90.90;;;;;;5023980;28;20289;-91
2021/03/10 01:57:05;;;;;;;21.43;9.93;;;5.20;90.30;;;;;;5022991;28;20186;-90
2021/03/10 01:59:31;;;;;;;12.60;8.30;;;5.10;90.40;;;;;;5019032;28;20279;-90
2021/03/10 02:01:56;;;;;;;14.47;8.90;;;5.10;90.50;;;;;;5021807;28;20235;-90
2021/03/10 02:04:23;;;;;;;14.70;8.37;;;;;;;;;;5018976;28;20276;-90
2021/03/10 02:07:07;;;;;;;15.03;8.97;;;5.10;90.40;;;;;;5045513;28;20231;-89
2021/03/10 02:10:11;;;;;;;14.93;8.80;;;5.10;90.40;;;;;;5021596;28;20236;-90
2021/03/10 02:12:58;;;;;;;11.70;8.33;;;5.10;90.30;;;;;;5018018;28;20175;-90
2021/03/10 02:15:39;;;;;;;16.47;8.57;;;5.10;90.60;;;;;;5020714;28;21361;-90
2021/03/10 02:18:14;;;;;;;15.70;7.80;;;5.70;90.90;;;;;;5039677;28;20164;-92
2021/03/10 02:20:45;;;;;;;15.43;8.53;;;5.10;90.40;;;;;;5040467;28;20260;-91
2021/03/10 02:23:17;;;;;;;17.83;8.80;;;5.10;90.60;;;;;;5026283;28;20243;-92
2021/03/10 02:26:13;;;;;;;16.03;10.03;;;5.10;90.60;;;;;;5023074;28;20225;-91
2021/03/10 02:28:40;;;;;;;16.13;8.90;;;5.10;90.60;;;;;;5022943;28;20188;-91
2021/03/10 02:31:10;;;;;;;15.77;8.90;;;5.10;90.40;;;;;;5031728;28;20648;-91
2021/03/10 02:33:38;;;;;;;9.57;6.93;;;5.10;90.70;;;;;;5042555;28;20278;-91
2021/03/10 02:36:12;;;;;;;16.93;9.50;;;5.00;90.20;;;;;;5035439;28;20188;-91
2021/03/10 02:38:52;;;;;;;19.50;8.17;;;5.20;89.00;;;;;;5030485;28;20548;-91
2021/03/10 02:41:19;;;;;;;15.70;8.77;;;5.20;87.60;;;;;;5012116;28;20247;-91
2021/03/10 02:43:48;;;;;;;14.70;8.33;;;5.30;86.50;;;;;;5021636;28;20220;-91
2021/03/10 02:46:15;;;;;;;12.33;8.20;;;5.40;82.40;;;;;;5039567;28;20239;-91
2021/03/10 02:48:44;;;;;;;12.43;7.80;;;5.40;83.00;;;;;;5027498;28;20587;-91
2021/03/10 02:51:10;;;;;;;15.03;8.17;;;5.40;81.70;;;;;;5026945;28;20183;-91
2021/03/10 02:53:40;;;;;;;15.20;9.27;;;5.50;81.10;;;;;;5008413;28;20183;-91
2021/03/10 02:56:10;;;;;;;11.33;7.47;;;5.50;80.90;;;;;;5011067;28;20207;-91
2021/03/10 02:58:38;;;;;;;12.90;8.20;;;5.50;80.90;;;;;;5007539;28;20664;-92
2021/03/10 03:01:04;;;;;;;13.10;8.93;;;5.50;80.90;;;;;;5007382;28;20234;-91
2021/03/10 03:03:30;;;;;;;16.47;8.00;;;5.50;80.00;;;;;;5006722;28;20328;-91
2021/03/10 03:05:55;;;;;;;14.87;8.63;;;5.50;80.70;;;;;;5024454;28;20192;-91
2021/03/10 03:08:21;;;;;;;13.30;8.03;;;5.50;80.90;;;;;;5009385;28;20286;-91
2021/03/10 03:10:47;;;;;;;15.83;8.67;;;5.50;80.50;;;;;;5021794;28;20254;-90
2021/03/10 03:13:15;;;;;;;12.63;8.17;;;5.60;81.00;;;;;;5009422;28;20196;-92
2021/03/10 03:15:49;;;;;;;14.30;8.83;;;5.50;81.00;;;;;;5006192;28;20235;-90
2021/03/10 03:18:15;;;;;;;12.07;6.83;;;5.50;80.60;;;;;;4994372;28;20196;-90
2021/03/10 03:20:41;;;;;;;13.57;8.03;;;6.00;81.10;;;;;;5012746;28;20186;-90
2021/03/10 03:23:07;;;;;;;15.70;8.23;;;5.50;80.40;;;;;;5019990;28;20207;-90
2021/03/10 03:25:35;;;;;;;10.63;7.10;;;5.50;80.10;;;;;;4997041;28;20205;-90
2021/03/10 03:28:05;;;;;;;10.73;7.33;;;5.60;79.50;;;;;;4999632;28;20193;-90
2021/03/10 03:30:34;;;;;;;13.03;7.93;;;5.60;78.50;;;;;;5007845;28;20223;-90
2021/03/10 03:33:01;;;;;;;10.73;7.33;;;7.10;80.40;;;;;;5005510;28;20203;-90
2021/03/10 03:35:27;;;;;;;12.30;7.97;;;5.60;79.20;;;;;;5005735;28;20207;-90
2021/03/10 03:37:54;;;;;;;12.87;7.60;;;5.50;78.80;;;;;;4998895;28;20244;-91
2021/03/10 03:40:22;;;;;;;12.33;7.27;;;5.90;79.70;;;;;;5003816;28;20192;-90
2021/03/10 03:42:48;;;;;;;10.97;7.07;;;5.50;79.40;;;;;;5005557;28;20568;-91
2021/03/10 03:45:18;;;;;;;11.43;7.47;;;5.50;79.10;;;;;;5004811;28;20265;-90
2021/03/10 03:47:47;;;;;;;10.07;7.07;;;5.50;79.60;;;;;;5015658;28;20202;-91
2021/03/10 03:50:13;;;;;;;13.00;7.03;;;;;;;;;;5009175;28;20195;-90
2021/03/10 03:52:40;;;;;;;12.10;7.13;;;5.60;78.20;;;;;;5011684;28;20202;-91
2021/03/10 03:55:07;;;;;;;13.57;7.47;;;5.60;78.50;;;;;;5005358;28;24668;-91
2021/03/10 03:57:33;;;;;;;10.80;6.97;;;5.60;78.30;;;;;;5023633;28;20222;-91
2021/03/10 03:59:59;;;;;;;11.50;7.70;;;5.60;78.40;;;;;;5040604;28;20546;-91
2021/03/10 04:02:24;;;;;;;8.37;6.50;;;5.60;77.70;;;;;;5028788;28;20219;-91
2021/03/10 04:04:50;;;;;;;12.13;6.87;;;5.60;78.20;;;;;;5027946;28;20232;-91
2021/03/10 04:07:15;;;;;;;9.00;7.03;;;5.60;78.50;;;;;;5038438;28;20695;-91
2021/03/10 04:09:41;;;;;;;7.67;5.90;;;5.60;77.60;;;;;;5023773;28;20212;-91
2021/03/10 04:12:07;;;;;;;11.17;6.93;;;5.60;77.50;;;;;;5028295;28;20216;-91
2021/03/10 04:14:33;;;;;;;8.67;6.23;;;5.60;77.60;;;;;;5025514;28;20172;-91
2021/03/10 04:16:59;;;;;;;10.00;6.20;;;;;;;;;;5008343;28;20227;-91
2021/03/10 04:19:25;;;;;;;10.03;6.73;;;5.70;77.10;;;;;;5028960;28;20238;-91
2021/03/10 04:21:50;;;;;;;9.50;5.47;;;5.70;77.70;;;;;;5021658;28;20228;-91
2021/03/10 04:24:16;;;;;;;8.83;6.30;;;5.60;77.60;;;;;;5024113;28;20208;-91
2021/03/10 04:26:42;;;;;;;6.77;5.40;;;6.10;78.00;;;;;;5025023;28;20194;-91
2021/03/10 04:29:07;;;;;;;10.80;6.83;;;5.60;77.50;;;;;;5042128;28;20673;-90
2021/03/10 04:31:33;;;;;;;11.17;6.47;;;5.60;77.60;;;;;;5026993;28;20211;-91
2021/03/10 04:33:58;;;;;;;10.77;6.63;;;5.60;77.50;;;;;;5040905;28;20223;-90
2021/03/10 04:36:24;;;;;;;13.50;7.20;;;5.70;77.70;;;;;;5024127;28;20242;-91
2021/03/10 04:38:50;;;;;;;9.27;6.20;;;5.60;77.90;;;;;;5024286;28;20184;-91
2021/03/10 04:41:15;;;;;;;9.53;6.17;;;7.50;79.20;;;;;;5030234;28;20291;-91
2021/03/10 04:43:41;;;;;;;10.13;6.60;;;5.60;78.20;;;;;;5021218;28;20227;-91
2021/03/10 04:46:07;;;;;;;9.93;7.07;;;5.60;77.60;;;;;;5041238;28;20248;-91
2021/03/10 04:48:32;;;;;;;12.53;6.90;;;5.80;77.70;;;;;;5022262;28;20242;-91
2021/03/10 04:51:02;;;;;;;9.23;6.53;;;5.60;77.60;;;;;;5027942;28;20207;-93
2021/03/10 04:53:28;;;;;;;9.17;6.53;;;6.90;78.70;;;;;;5021867;28;20192;-86
2021/03/10 04:55:53;;;;;;;8.37;6.50;;;5.60;77.60;;;;;;5034773;28;20285;-86
2021/03/10 04:58:19;;;;;;;9.00;7.23;;;5.60;77.60;;;;;;5010663;28;20203;-86
2021/03/10 05:00:45;;;;;;;10.80;6.90;;;5.50;77.90;;;;;;5019444;28;20216;-86
2021/03/10 05:03:10;;;;;;;8.03;5.57;;;5.60;77.30;;;;;;5020932;28;20228;-86
2021/03/10 05:05:36;;;;;;;7.70;5.77;;;5.60;77.80;;;;;;5023895;28;20192;-88
2021/03/10 05:08:02;;;;;;;9.40;6.57;;;5.70;78.00;;;;;;5024796;28;20221;-86
2021/03/10 05:10:28;;;;;;;9.40;6.87;;;5.50;78.20;;;;;;5039141;28;20228;-90
2021/03/10 05:12:53;;;;;;;9.47;6.27;;;5.50;78.60;;;;;;5023375;28;20188;-90
2021/03/10 05:15:19;;;;;;;12.67;8.23;;;5.40;78.90;;;;;;5043747;28;20243;-90
2021/03/10 05:17:45;;;;;;;11.70;6.83;;;5.40;79.40;;;;;;5040574;28;20209;-90
2021/03/10 05:20:11;;;;;;;13.07;7.03;;;5.50;79.10;;;;;;5023538;28;20192;-90
2021/03/10 05:22:37;;;;;;;12.87;5.03;;;5.50;78.20;;;;;;5036865;28;20203;-90
2021/03/10 05:25:08;;;;;;;6.50;4.70;;;7.20;80.40;;;;;;5038952;28;20212;-90
2021/03/10 05:27:34;;;;;;;13.73;7.37;;;5.50;78.90;;;;;;5020617;28;20217;-88
2021/03/10 05:30:00;;;;;;;7.93;6.13;;;5.50;78.70;;;;;;5018500;28;20192;-88
2021/03/10 05:32:26;;;;;;;12.40;7.20;;;5.40;80.10;;;;;;5023386;28;20218;-86
2021/03/10 05:34:52;;;;;;;10.20;6.70;;;5.40;80.30;;;;;;5021299;28;20651;-85
2021/03/10 05:37:17;;;;;;;10.17;6.33;;;5.40;81.00;;;;;;5023147;28;20239;-77
2021/03/10 05:39:43;;;;;;;12.97;5.83;;;5.30;81.40;;;;;;5016098;28;20249;-78
2021/03/10 05:42:09;;;;;;;6.57;5.33;;;5.40;78.90;;;;;;5012808;28;20211;-78
2021/03/10 05:44:35;;;;;;;9.93;5.97;;;5.40;77.50;;;;;;5010838;28;20301;-76
2021/03/10 05:47:01;;;;;;;7.03;4.73;;;5.50;77.40;;;;;;5010033;28;20640;-75
2021/03/10 05:49:26;;;;;;;7.70;6.30;;;5.50;77.50;;;;;;5019230;28;20243;-75
2021/03/10 05:51:53;;;;;;;12.97;6.77;;;5.50;77.40;;;;;;5007489;28;20215;-76
2021/03/10 05:54:22;;;;;;;5.60;4.37;;;5.50;77.20;;;;;;5013277;28;20199;-80
2021/03/10 05:56:48;;;;;;;6.90;5.60;;;5.60;76.30;;;;;;5038591;28;20242;-80
2021/03/10 05:59:13;;;;;;;11.97;5.77;;;5.50;76.50;;;;;;5021374;28;20231;-80
2021/03/10 06:01:39;;;;;;;11.67;7.27;;;5.50;77.10;;;;;;5019306;28;20221;-81
2021/03/10 06:04:07;;;;;;;9.23;5.43;;;5.50;76.60;;;;;;5020678;28;20679;-80
2021/03/10 06:06:40;;;;;;;9.83;6.13;;;5.60;76.90;;;;;;5021059;28;20226;-80
2021/03/10 06:09:11;;;;;;;10.07;7.07;;;5.70;76.30;;;;;;5038541;28;20615;-80
2021/03/10 06:11:37;;;;;;;11.57;5.87;;;5.70;75.30;;;;;;5041703;28;20279;-80
2021/03/10 06:14:07;;;;;;;12.83;7.10;;;5.70;74.90;;;;;;5030230;28;20220;-80
2021/03/10 06:16:32;;;;;;;10.90;6.50;;;5.70;74.90;;;;;;5042486;28;20294;-80
2021/03/10 06:19:05;;;;;;;10.57;6.70;;;5.70;75.30;;;;;;5033493;28;20646;-79
2021/03/10 06:21:31;;;;;;;9.30;6.33;;;5.70;75.00;;;;;;5024117;28;20192;-80
2021/03/10 06:24:04;;;;;;;9.03;5.80;;;5.80;74.60;;;;;;5045297;28;22226;-80
2021/03/10 06:26:32;;;;;;;7.57;5.57;;;5.80;74.80;;;;;;5025672;28;20246;-80
2021/03/10 06:29:00;;;;;;;7.87;5.07;;;5.80;75.10;;;;;;5045138;28;20215;-80
2021/03/10 06:31:31;;;;;;;9.03;5.87;;;5.80;74.80;;;;;;5030759;28;20235;-80
2021/03/10 06:34:08;;;;;;;7.53;5.30;;;5.90;74.70;;;;;;5036596;28;20212;-81
2021/03/10 06:36:47;;;;;;;10.87;5.93;;;5.90;74.20;;;;;;5027536;28;20191;-80
2021/03/10 06:39:22;;;;;;;8.87;6.13;;;5.90;74.10;;;;;;5041312;28;20251;-80
2021/03/10 06:41:48;;;;;;;10.10;6.50;;;5.90;73.80;;;;;;5036126;28;20289;-81
2021/03/10 06:44:26;;;;;;;8.30;6.53;;;6.00;73.70;;;;;;5042254;28;20244;-82
2021/03/10 06:46:54;;;;;;;8.70;4.77;;;6.00;73.40;;;;;;5023615;28;20233;-81
2021/03/10 06:49:21;;;;;;;9.00;4.97;;;6.00;73.00;;;;;;5014965;28;20233;-82
2021/03/10 06:51:51;;;;;;;11.23;6.67;;;6.10;72.90;;;;;;5027629;28;20219;-82
2021/03/10 06:54:17;;;;;;;8.53;5.60;;;6.10;72.70;;;;;;5028558;28;20199;-82
2021/03/10 06:56:43;;;;;;;8.87;5.47;;;6.10;72.70;;;;;;5030513;28;20196;-81
2021/03/10 06:59:09;;;;;;;2.57;1.67;;;6.10;71.80;;;;;;5038353;28;21042;-81
2021/03/10 07:01:42;;;;;;;9.33;5.60;;;6.10;72.30;;;;;;5038026;28;20208;-81
2021/03/10 07:04:10;;;;;;;8.13;4.80;;;6.10;72.00;;;;;;5026004;28;20239;-81
2021/03/10 07:06:37;;;;;;;9.43;6.53;;;6.20;72.60;;;;;;5042990;28;20223;-81
2021/03/10 07:09:09;;;;;;;8.70;5.20;;;6.10;73.00;;;;;;5029896;28;20199;-81
2021/03/10 07:11:37;;;;;;;10.13;5.83;;;6.10;72.90;;;;;;5030972;28;20234;-81
2021/03/10 07:14:03;;;;;;;11.30;6.27;;;6.20;72.80;;;;;;5037608;28;20188;-82
2021/03/10 07:16:33;;;;;;;10.83;5.57;;;6.20;71.80;;;;;;5029742;28;20231;-82
2021/03/10 07:19:01;;;;;;;10.57;6.53;;;6.20;71.70;;;;;;5028084;28;20244;-81
2021/03/10 07:21:52;;;;;;;10.37;6.03;;;6.20;71.90;;;;;;5027769;28;20230;-81
2021/03/10 07:24:32;;;;;;;8.97;5.77;;;6.40;70.50;;;;;;5028629;28;20405;-83
2021/03/10 07:26:59;;;;;;;12.10;6.00;;;6.40;70.80;;;;;;5045270;28;20338;-81
2021/03/10 07:29:27;;;;;;;11.00;7.10;;;6.40;70.60;;;;;;5040018;28;20263;-81
2021/03/10 07:32:00;;;;;;;10.10;5.73;;;6.40;70.30;;;;;;5034922;28;20215;-81
2021/03/10 07:34:27;;;;;;;9.07;6.30;;;6.40;70.70;;;;;;5043580;28;20187;-79
2021/03/10 07:36:56;;;;;;;11.70;6.60;;;;;;;;;;5027240;28;20250;-81
2021/03/10 07:39:26;;;;;;;10.40;6.83;;;6.50;71.10;;;;;;5024306;28;20604;-79
2021/03/10 07:41:53;;;;;;;11.03;6.73;;;6.60;72.80;;;;;;5029236;28;20210;-81
2021/03/10 07:44:25;;;;;;;12.73;7.63;;;6.70;73.00;;;;;;5028517;28;20223;-81
2021/03/10 07:47:09;;;;;;;12.20;7.63;;;6.80;73.10;;;;;;5026736;28;20226;-81
2021/03/10 07:49:36;;;;;;;9.47;6.00;;;6.80;70.10;;;;;;5045097;28;20243;-81
2021/03/10 07:52:14;;;;;;;11.97;6.13;;;6.90;70.70;;;;;;5031833;28;20222;-81
2021/03/10 07:54:41;;;;;;;8.83;5.80;;;6.80;69.50;;;;;;5042634;28;20258;-81
2021/03/10 07:57:15;;;;;;;10.87;6.70;;;6.90;67.00;;;;;;5024566;28;20199;-80
2021/03/10 07:59:57;;;;;;;8.70;5.90;;;7.10;66.60;;;;;;5026386;28;20187;-81
2021/03/10 08:02:39;;;;;;;16.63;6.80;;;7.00;66.40;;;;;;5039961;28;20232;-81
2021/03/10 08:05:05;;;;;;;9.50;4.90;;;7.10;66.70;;;;;;5039066;28;20247;-82
2021/03/10 08:07:32;;;;;;;8.93;5.80;;;7.10;67.30;;;;;;5026172;28;20274;-81
2021/03/10 08:09:58;;;;;;;12.67;7.03;;;7.20;66.40;;;;;;5042709;28;20227;-80
2021/03/10 08:12:35;;;;;;;10.10;5.73;;;7.10;66.30;;;;;;5026798;28;20283;-81
2021/03/10 08:15:01;;;;;;;6.67;5.20;;;7.00;66.80;;;;;;5043478;28;20206;-81
2021/03/10 08:17:29;;;;;;;9.73;5.73;;;7.00;67.90;;;;;;5040264;28;20219;-81
2021/03/10 08:19:57;;;;;;;10.67;6.77;;;6.80;71.20;;;;;;5042661;28;20728;-81
2021/03/10 08:22:26;;;;;;;12.20;7.47;;;6.80;72.70;;;;;;5026589;28;20220;-81
2021/03/10 08:24:53;;;;;;;11.00;7.13;;;6.90;72.70;;;;;;5025694;28;20203;-81
2021/03/10 08:27:31;;;;;;;10.93;5.80;;;6.80;72.50;;;;;;5010958;28;20199;-81
2021/03/10 08:29:57;;;;;;;6.67;4.60;;;6.70;73.20;;;;;;5039956;28;20184;-82
2021/03/10 08:32:24;;;;;;;12.73;6.83;;;6.60;74.00;;;;;;5026451;28;20202;-82
2021/03/10 08:34:50;;;;;;;12.07;6.93;;;6.60;74.00;;;;;;5026212;28;20719;-82
2021/03/10 08:37:16;;;;;;;14.43;7.13;;;6.80;73.40;;;;;;5020571;28;20193;-81
2021/03/10 08:39:44;;;;;;;10.27;6.27;;;6.90;73.00;;;;;;5025216;28;20204;-82
2021/03/10 08:42:10;;;;;;;9.47;6.93;;;6.90;73.20;;;;;;5018240;28;20183;-82
2021/03/10 08:44:41;;;;;;;7.17;4.97;;;7.00;71.90;;;;;;5021117;28;20200;-81
2021/03/10 08:47:23;;;;;;;11.80;6.33;;;6.90;69.10;;;;;;5022650;28;20220;-81
2021/03/10 08:49:59;;;;;;;12.40;7.10;;;7.00;68.90;;;;;;5036492;28;20216;-81
2021/03/10 08:52:27;;;;;;;11.93;6.77;;;7.10;69.40;;;;;;5028251;28;20247;-81
2021/03/10 08:54:57;;;;;;;10.47;5.97;;;7.10;70.30;;;;;;5009901;28;20196;-81
2021/03/10 08:57:31;;;;;;;4.80;3.43;;;7.20;69.60;;;;;;5026820;28;20189;-81
2021/03/10 08:59:57;;;;;;;7.83;5.87;;;7.30;67.60;;;;;;5040655;28;20192;-81
2021/03/10 09:02:32;;;;;;;12.40;7.47;;;7.40;68.20;;;;;;5027242;28;20258;-81
2021/03/10 09:05:00;;;;;;;10.90;6.53;;;7.50;68.20;;;;;;5042257;28;20244;-82
2021/03/10 09:07:27;;;;;;;12.73;6.77;;;7.50;68.80;;;;;;5032492;28;20195;-81
2021/03/10 09:09:57;;;;;;;9.50;6.23;;;7.60;68.30;;;;;;5041540;28;20203;-82
2021/03/10 09:12:23;;;;;;;11.53;6.07;;;7.70;65.40;;;;;;5016280;28;20204;-82
2021/03/10 09:14:50;;;;;;;11.30;6.73;;;7.80;66.40;;;;;;5019258;28;20198;-82
2021/03/10 09:17:16;;;;;;;12.83;7.57;;;7.90;66.40;;;;;;5024698;28;20196;-82
2021/03/10 09:19:46;;;;;;;7.13;4.67;;;8.10;65.70;;;;;;5023763;28;20189;-82
2021/03/10 09:22:13;;;;;;;11.73;6.57;;;8.10;64.00;;;;;;5041220;28;20231;-80
2021/03/10 09:24:48;;;;;;;10.47;6.37;;;8.00;64.30;;;;;;5028840;28;20232;-81
2021/03/10 09:27:22;;;;;;;4.77;3.30;;;7.90;65.20;;;;;;5023335;28;20204;-81
2021/03/10 09:29:49;;;;;;;8.77;4.80;;;8.00;64.00;;;;;;5024185;28;20219;-81
2021/03/10 09:32:15;;;;;;;11.90;5.77;;;8.20;63.80;;;;;;5037409;28;20264;-83
2021/03/10 09:34:45;;;;;;;8.73;5.40;;;8.00;61.00;;;;;;5021143;28;20223;-82
2021/03/10 09:37:13;;;;;;;4.90;3.70;;;8.10;60.90;;;;;;5021702;28;20258;-81
2021/03/10 09:39:41;;;;;;;11.83;6.03;;;7.90;61.90;;;;;;5041335;28;20301;-81
2021/03/10 09:42:07;;;;;;;8.77;4.80;;;7.90;62.60;;;;;;5037092;28;20192;-82
2021/03/10 09:45:06;;;;;;;12.37;7.23;;;8.00;61.90;;;;;;5022630;28;20559;-81
2021/03/10 09:47:32;;;;;;;11.03;5.83;;;8.10;62.80;;;;;;4989712;28;20239;-81
2021/03/10 09:49:59;;;;;;;12.43;7.33;;;8.00;61.90;;;;;;5022715;28;20219;-81
2021/03/10 09:52:32;;;;;;;4.27;3.73;;;8.10;62.00;;;;;;5027687;28;20710;-81
2021/03/10 09:54:58;;;;;;;4.30;3.77;;;8.00;61.20;;;;;;5030070;28;20238;-81
2021/03/10 09:57:28;;;;;;;8.37;5.43;;;8.00;61.80;;;;;;5022269;28;20218;-82
2021/03/10 09:59:58;;;;;;;7.30;4.13;;;8.00;61.20;;;;;;5020555;28;20184;-82
2021/03/10 10:02:24;;;;;;;12.53;6.43;;;8.00;61.30;;;;;;5021094;28;20251;-82
2021/03/10 10:05:00;;;;;;;8.47;5.50;;;8.00;62.00;;;;;;5021003;28;20800;-82
2021/03/10 10:07:29;;;;;;;13.67;6.73;;;8.10;62.80;;;;;;5002810;28;20253;-82
2021/03/10 10:09:55;;;;;;;14.50;8.10;;;8.30;63.00;;;;;;4993358;28;20196;-82
2021/03/10 10:12:22;;;;;;;6.83;4.23;;;8.30;62.20;;;;;;5005022;28;20217;-83
2021/03/10 10:14:48;;;;;;;7.00;5.03;;;7.90;62.80;;;;;;5005392;28;20303;-82
2021/03/10 10:17:14;;;;;;;15.33;8.03;;;8.00;62.70;;;;;;5012555;28;20216;-82
2021/03/10 10:19:41;;;;;;;12.37;6.37;;;8.00;62.70;;;;;;5012613;28;20309;-83
2021/03/10 10:22:08;;;;;;;13.60;7.73;;;8.10;62.80;;;;;;5025404;28;20223;-81
2021/03/10 10:24:34;;;;;;;15.13;6.93;;;8.20;62.30;;;;;;5018357;28;20235;-81
2021/03/10 10:27:00;;;;;;;9.07;5.73;;;8.00;61.70;;;;;;5005043;28;20265;-82
2021/03/10 10:29:26;;;;;;;8.30;5.17;;;7.90;62.60;;;;;;5006358;28;20191;-81
2021/03/10 10:31:52;;;;;;;11.43;7.43;;;7.90;62.70;;;;;;5024719;28;20224;-84
2021/03/10 10:34:17;;;;;;;9.77;6.40;;;7.90;63.80;;;;;;5020805;28;20196;-82
2021/03/10 10:36:43;;;;;;;14.27;7.60;;;7.90;64.20;;;;;;5025093;28;20220;-82
2021/03/10 10:39:09;;;;;;;13.53;7.37;;;7.90;62.10;;;;;;5024111;28;20204;-81
2021/03/10 10:41:35;;;;;;;4.77;4.07;;;7.90;62.70;;;;;;5023764;28;20196;-81
2021/03/10 10:44:01;;;;;;;12.93;8.20;;;8.00;62.70;;;;;;5022160;28;20216;-81
2021/03/10 10:46:27;;;;;;;9.47;6.33;;;8.10;62.90;;;;;;5023234;28;20645;-81
2021/03/10 10:48:52;;;;;;;18.97;8.20;;;8.10;63.20;;;;;;5037173;28;20589;-82
2021/03/10 10:51:21;;;;;;;14.33;8.20;;;8.30;63.40;;;;;;5019930;28;20186;-84
2021/03/10 10:53:48;;;;;;;16.13;8.47;;;8.50;63.20;;;;;;5039664;28;20207;-84
2021/03/10 10:56:13;;;;;;;5.63;3.50;;;8.70;63.30;;;;;;5030269;28;20230;-82
2021/03/10 10:58:39;;;;;;;12.00;6.30;;;8.30;63.00;;;;;;5024595;28;20220;-83
2021/03/10 11:01:06;;;;;;;8.63;4.70;;;8.40;63.10;;;;;;5020857;28;20244;-85
2021/03/10 11:03:32;;;;;;;17.47;8.80;;;8.40;61.90;;;;;;5027179;28;20263;-84
2021/03/10 11:05:57;;;;;;;14.03;7.00;;;8.50;63.00;;;;;;5035034;28;20184;-84
2021/03/10 11:08:24;;;;;;;12.50;7.60;;;8.50;62.70;;;;;;5025402;28;20646;-84
2021/03/10 11:10:50;;;;;;;10.80;6.87;;;8.80;62.10;;;;;;5026325;28;20250;-83
2021/03/10 11:13:16;;;;;;;11.03;6.97;;;9.00;61.30;;;;;;5037956;28;20188;-84
2021/03/10 11:15:41;;;;;;;17.00;9.97;;;9.10;60.50;;;;;;5031694;28;20225;-83
2021/03/10 11:18:07;;;;;;;10.80;6.53;;;8.90;61.80;;;;;;5026209;28;20227;-82
2021/03/10 11:20:33;;;;;;;11.00;6.30;;;8.80;62.00;;;;;;5033765;28;20188;-84
2021/03/10 11:22:58;;;;;;;16.43;8.73;;;8.70;61.50;;;;;;5021473;28;20223;-82
2021/03/10 11:25:24;;;;;;;12.37;8.40;;;8.90;62.20;;;;;;5027285;28;20236;-85
2021/03/10 11:27:50;;;;;;;11.17;7.07;;;8.90;62.00;;;;;;5028689;28;20206;-84
2021/03/10 11:30:16;;;;;;;10.37;7.13;;;9.00;61.60;;;;;;5041816;28;20196;-83
2021/03/10 11:32:42;;;;;;;12.40;7.97;;;9.00;60.90;;;;;;5038336;28;20195;-84
2021/03/10 11:35:09;;;;;;;14.70;7.90;;;9.20;61.50;;;;;;5021928;28;20222;-84
2021/03/10 11:37:35;;;;;;;10.33;5.93;;;9.50;60.50;;;;;;5030881;28;20777;-86
2021/03/10 11:40:02;;;;;;;12.70;8.10;;;;;;;;;;5025761;28;20246;-81
2021/03/10 11:42:27;;;;;;;13.60;7.90;;;9.50;57.90;;;;;;5041388;28;20192;-82
2021/03/10 11:44:54;;;;;;;14.63;8.60;;;9.70;58.10;;;;;;5023370;28;20219;-81
2021/03/10 11:47:20;;;;;;;3.93;3.40;;;9.70;58.10;;;;;;5042985;28;20231;-81
2021/03/10 11:49:46;;;;;;;10.13;6.27;;;9.60;57.20;;;;;;5025090;28;20188;-81
2021/03/10 11:52:11;;;;;;;7.70;5.27;;;9.80;57.40;;;;;;5040254;28;20238;-83
2021/03/10 11:54:37;;;;;;;14.90;7.67;;;9.70;57.40;;;;;;5032516;28;20250;-81
2021/03/10 11:57:03;;;;;;;14.47;8.17;;;9.80;57.40;;;;;;5025166;28;20200;-82
2021/03/10 11:59:29;;;;;;;12.93;6.90;;;9.90;57.60;;;;;;5041145;28;20215;-83
2021/03/10 12:01:55;;;;;;;13.80;6.97;;;10.30;55.10;;;;;;5027689;28;20185;-83
2021/03/10 12:04:20;;;;;;;10.33;6.80;;;10.40;53.50;;;;;;5035658;28;20231;-82
2021/03/10 12:06:46;;;;;;;10.03;5.67;;;10.60;53.40;;;;;;5039661;28;20211;-83
2021/03/10 12:09:12;;;;;;;11.67;7.03;;;10.50;54.00;;;;;;5027241;28;20188;-82
2021/03/10 12:11:38;;;;;;;13.63;7.13;;;10.30;55.10;;;;;;5025787;28;20183;-81
2021/03/10 12:14:04;;;;;;;10.60;6.73;;;10.60;52.70;;;;;;5041440;28;20240;-83
2021/03/10 12:16:29;;;;;;;12.90;7.30;;;10.60;53.30;;;;;;5028647;28;20234;-84
2021/03/10 12:18:55;;;;;;;10.67;6.57;;;10.70;53.90;;;;;;5024643;28;20252;-84
2021/03/10 12:21:21;;;;;;;4.77;4.00;;;11.10;52.70;;;;;;5024953;28;20191;-83
2021/03/10 12:23:47;;;;;;;6.57;4.77;;;10.80;51.70;;;;;;5027700;28;20226;-82
2021/03/10 12:26:12;;;;;;;7.40;4.63;;;10.60;53.30;;;;;;5029067;28;20329;-83
2021/03/10 12:28:39;;;;;;;8.10;5.37;;;10.40;54.00;;;;;;5031391;28;20231;-82
2021/03/10 12:31:05;;;;;;;5.10;4.53;;;10.60;54.10;;;;;;5036112;28;20291;-84
2021/03/10 12:33:31;;;;;;;12.53;7.27;;;10.50;52.80;;;;;;5033756;28;20188;-84
2021/03/10 12:35:57;;;;;;;5.30;4.70;;;10.70;54.00;;;;;;5026920;28;20191;-84
2021/03/10 12:38:22;;;;;;;11.50;7.33;;;10.60;52.80;;;;;;5027451;28;20253;-84
2021/03/10 12:40:50;;;;;;;12.13;7.73;;;10.50;53.20;;;;;;5028564;28;20620;-85
2021/03/10 12:43:16;;;;;;;6.83;4.37;;;10.50;53.70;;;;;;5039345;28;20263;-85
2021/03/10 12:45:41;;;;;;;5.80;3.33;;;10.50;53.50;;;;;;5038058;28;20248;-84
2021/03/10 12:48:08;;;;;;;12.57;7.57;;;10.30;53.50;;;;;;5025915;28;20646;-84
2021/03/10 12:50:34;;;;;;;6.83;3.90;;;10.30;53.90;;;;;;5042269;28;20256;-82
2021/03/10 12:52:59;;;;;;;9.10;6.13;;;10.20;54.30;;;;;;5024766;28;20208;-84